< < Back
Terminal Aerodrome Forecast


Current Version              Previous Versions:   1  2  3  4  5  6  7  8  9  

Terminal Aerodrome Forecast

670
FTUS42 KFFC 260900 AAB
TAFATL
TAF AMD
KATL 260942Z 2610/2712 31004KT P6SM FEW045
     FM261600 28009KT P6SM SCT045
     FM270100 25004KT P6SM FEW050=



Latest METAR

536
SAUS70 KWBC 261100 RRK
MTRATL
METAR KATL 261052Z 00000KT 9SM FEW045 SCT250 22/19 A3004 RMK AO2 SLP160
T02170189 $


USA.gov is the U.S. government's official web portal to all federal, state and local government web resources and services.